Corona Kingdom — 7JYO — position and weather

sailwx.info

Track history (hours):
 
Tides and Currents Weather Stations Pressure Air Temp Water Temp Dewpoint Dewpoint Depression Visibility Wind Speed Wind Dir Waves Ship Positions

Corona Kingdom

Last reported at 2018-Jan-22 10:36 UTC. Time now 2018-Jan-22 18:33 UTC.
Position N 22°06' E 120°11'.

Length 229 m; draft 9 m.

Type: Cargo ship. MMSI: 431400000.

Date/timePositionNaut miles runAvg speedWind from/ knotsBaromVisibWave heightAir tempDewpointWater temp
2018-Jan-22 10:36N 22°06' E 120°11'112.2
2018-Jan-22 10:30N 22°07' E 120°11'712.3
2018-Jan-22 09:55N 22°14' E 120°09'512.3
2018-Jan-22 09:30N 22°19' E 120°08'612.5
2018-Jan-22 09:00N 22°25' E 120°10'612.3
2018-Jan-22 08:30N 22°31' E 120°12'510.8
2018-Jan-22 08:00N 22°33' E 120°17'2 4.8
2018-Jan-22 07:30N 22°33' E 120°20'0 0.6
2018-Jan-22 06:59N 22°33' E 120°20'0 0.0
2018-Jan-22 06:28N 22°33' E 120°20'0 0.0
2018-Jan-22 05:58N 22°33' E 120°20'0 0.0
2018-Jan-22 05:25N 22°33' E 120°20'0 0.1
2018-Jan-22 04:58N 22°33' E 120°20'0 0.1
2018-Jan-22 04:28N 22°33' E 120°20'0 0.0
2018-Jan-22 03:58N 22°33' E 120°20'0 0.0
2018-Jan-22 03:28N 22°33' E 120°20'0 0.0
2018-Jan-22 02:58N 22°33' E 120°20'0 0.1
2018-Jan-22 02:28N 22°33' E 120°20'0 0.1
2018-Jan-22 01:58N 22°33' E 120°20'0 0.0
2018-Jan-22 01:28N 22°33' E 120°20'0 0.0
2018-Jan-22 00:58N 22°33' E 120°20'0 0.0
2018-Jan-22 00:29N 22°33' E 120°20'1 2.3
2018-Jan-22 00:00N 22°33' E 120°18'4 7.7
2018-Jan-21 23:30N 22°32' E 120°14'2 4.7
2018-Jan-21 23:00N 22°31' E 120°12'3 6.2
2018-Jan-21 22:30N 22°33' E 120°09'1 2.6
2018-Jan-21 22:00N 22°33' E 120°08'0 0.7
2018-Jan-21 21:30N 22°33' E 120°07'0 0.5
2018-Jan-21 21:00N 22°33' E 120°07'0 0.5
2018-Jan-21 20:30N 22°32' E 120°07'0 0.4
2018-Jan-21 20:00N 22°32' E 120°06'0 0.5
2018-Jan-21 19:30N 22°32' E 120°06'0 0.6
2018-Jan-21 18:59N 22°32' E 120°06'1 1.1
2018-Jan-21 18:30N 22°31' E 120°06'3 6.5
2018-Jan-21 18:00N 22°34' E 120°05'5 9.5
2018-Jan-21 17:30N 22°39' E 120°02'612.4
2018-Jan-21 17:00N 22°44' E 119°59'612.4
2018-Jan-21 16:30N 22°49' E 119°55'611.8
2018-Jan-21 16:00N 22°55' E 119°53'611.3
2018-Jan-21 15:30N 23°00' E 119°54'611.3
2018-Jan-21 14:56N 23°07' E 119°54'611.3
2018-Jan-21 14:23N 23°13' E 119°54'511.2
2018-Jan-21 13:56N 23°18' E 119°53'711.1
2018-Jan-21 13:19N 23°25' E 119°53'411.4
2018-Jan-21 13:00N 23°28' E 119°53'611.7
2018-Jan-21 12:30N 23°34' E 119°53'612.2
2018-Jan-21 12:00N 23°40' E 119°55'10812.1
2018-Jan-21 03:06N 25°11' E 120°59'  
Track history (hours):
 
Tides and Currents Weather Stations Pressure Air Temp Water Temp Dewpoint Dewpoint Depression Visibility Wind Speed Wind Dir Waves Ship Positions

Corona Kingdom

Last reported at 2018-Jan-22 10:36 UTC. Time now 2018-Jan-22 18:33 UTC.
Position N 22°06' E 120°11'.

Length 229 m; draft 9 m.

Type: Cargo ship. MMSI: 431400000.

Date/timePositionNaut miles runAvg speedWind from/ knotsBaromVisibWave heightAir tempDewpointWater temp
2018-Jan-22 10:36N 22°06' E 120°11'112.2
2018-Jan-22 10:30N 22°07' E 120°11'712.3
2018-Jan-22 09:55N 22°14' E 120°09'512.3
2018-Jan-22 09:30N 22°19' E 120°08'612.5
2018-Jan-22 09:00N 22°25' E 120°10'612.3
2018-Jan-22 08:30N 22°31' E 120°12'510.8
2018-Jan-22 08:00N 22°33' E 120°17'2 4.8
2018-Jan-22 07:30N 22°33' E 120°20'0 0.6
2018-Jan-22 06:59N 22°33' E 120°20'0 0.0
2018-Jan-22 06:28N 22°33' E 120°20'0 0.0
2018-Jan-22 05:58N 22°33' E 120°20'0 0.0
2018-Jan-22 05:25N 22°33' E 120°20'0 0.1
2018-Jan-22 04:58N 22°33' E 120°20'0 0.1
2018-Jan-22 04:28N 22°33' E 120°20'0 0.0
2018-Jan-22 03:58N 22°33' E 120°20'0 0.0
2018-Jan-22 03:28N 22°33' E 120°20'0 0.0
2018-Jan-22 02:58N 22°33' E 120°20'0 0.1
2018-Jan-22 02:28N 22°33' E 120°20'0 0.1
2018-Jan-22 01:58N 22°33' E 120°20'0 0.0
2018-Jan-22 01:28N 22°33' E 120°20'0 0.0
2018-Jan-22 00:58N 22°33' E 120°20'0 0.0
2018-Jan-22 00:29N 22°33' E 120°20'1 2.3
2018-Jan-22 00:00N 22°33' E 120°18'4 7.7
2018-Jan-21 23:30N 22°32' E 120°14'2 4.7
2018-Jan-21 23:00N 22°31' E 120°12'3 6.2
2018-Jan-21 22:30N 22°33' E 120°09'1 2.6
2018-Jan-21 22:00N 22°33' E 120°08'0 0.7
2018-Jan-21 21:30N 22°33' E 120°07'0 0.5
2018-Jan-21 21:00N 22°33' E 120°07'0 0.5
2018-Jan-21 20:30N 22°32' E 120°07'0 0.4
2018-Jan-21 20:00N 22°32' E 120°06'0 0.5
2018-Jan-21 19:30N 22°32' E 120°06'0 0.6
2018-Jan-21 18:59N 22°32' E 120°06'1 1.1
2018-Jan-21 18:30N 22°31' E 120°06'3 6.5
2018-Jan-21 18:00N 22°34' E 120°05'5 9.5
2018-Jan-21 17:30N 22°39' E 120°02'612.4
2018-Jan-21 17:00N 22°44' E 119°59'612.4
2018-Jan-21 16:30N 22°49' E 119°55'611.8
2018-Jan-21 16:00N 22°55' E 119°53'611.3
2018-Jan-21 15:30N 23°00' E 119°54'611.3
2018-Jan-21 14:56N 23°07' E 119°54'611.3
2018-Jan-21 14:23N 23°13' E 119°54'511.2
2018-Jan-21 13:56N 23°18' E 119°53'711.1
2018-Jan-21 13:19N 23°25' E 119°53'411.4
2018-Jan-21 13:00N 23°28' E 119°53'611.7
2018-Jan-21 12:30N 23°34' E 119°53'612.2
2018-Jan-21 12:00N 23°40' E 119°55'10812.1
2018-Jan-21 03:06N 25°11' E 120°59'  

Dump ship's entire track history